createdAt,value
2018-04-23T00:01:04.957Z,19.89
2018-04-23T00:03:16.133Z,19.94
2018-04-23T00:05:27.239Z,19.94
2018-04-23T00:07:38.329Z,19.99
2018-04-23T00:09:49.429Z,20.01
2018-04-23T00:12:00.554Z,20.00
2018-04-23T00:14:11.709Z,19.96
2018-04-23T00:16:22.786Z,19.92
2018-04-23T00:18:33.941Z,19.96
2018-04-23T00:20:45.051Z,19.98
2018-04-23T00:22:56.139Z,19.99
2018-04-23T00:25:07.195Z,19.98
2018-04-23T00:27:18.326Z,19.92
2018-04-23T00:29:29.486Z,19.86
2018-04-23T00:31:40.548Z,19.78
2018-04-23T00:33:51.698Z,19.80
2018-04-23T00:36:02.773Z,19.79
2018-04-23T00:38:13.862Z,19.74
2018-04-23T00:40:24.929Z,19.69
2018-04-23T00:42:36.049Z,19.68
2018-04-23T00:44:47.120Z,19.66
2018-04-23T00:46:58.202Z,19.65
2018-04-23T00:49:09.326Z,19.65
2018-04-23T00:51:20.436Z,19.62
2018-04-23T00:53:37.769Z,19.59
2018-04-23T00:55:48.825Z,19.55
2018-04-23T00:58:00.002Z,19.47
2018-04-23T01:00:11.089Z,19.41
2018-04-23T01:02:22.182Z,19.36
2018-04-23T01:04:33.279Z,19.29
2018-04-23T01:06:44.377Z,19.25
2018-04-23T01:08:55.481Z,19.19
2018-04-23T01:11:06.678Z,19.12
2018-04-23T01:13:17.797Z,19.04
2018-04-23T01:15:28.893Z,19.01
2018-04-23T01:17:40.133Z,19.00
2018-04-23T01:19:51.225Z,18.95
2018-04-23T01:22:02.287Z,18.92
2018-04-23T01:24:13.356Z,18.86
2018-04-23T01:26:24.455Z,18.80
2018-04-23T01:28:35.558Z,18.73
2018-04-23T01:30:46.674Z,18.68
2018-04-23T01:32:57.746Z,18.65
2018-04-23T01:35:08.790Z,18.62
2018-04-23T01:37:19.866Z,18.60
2018-04-23T01:39:30.919Z,18.61
2018-04-23T01:41:42.163Z,18.58
2018-04-23T01:43:53.204Z,18.56
2018-04-23T01:46:04.325Z,18.57
2018-04-23T01:48:15.409Z,18.60
2018-04-23T01:50:26.485Z,18.58
2018-04-23T01:52:37.554Z,18.52
2018-04-23T01:54:48.629Z,18.51
2018-04-23T01:56:59.678Z,18.47
2018-04-23T01:59:10.735Z,18.46
2018-04-23T02:01:21.851Z,18.45
2018-04-23T02:03:32.906Z,18.44
2018-04-23T02:05:44.088Z,18.40
2018-04-23T02:07:55.136Z,18.30
2018-04-23T02:10:06.326Z,18.24
2018-04-23T02:12:17.427Z,18.22
2018-04-23T02:14:28.516Z,18.15
2018-04-23T02:16:39.582Z,18.12
2018-04-23T02:18:50.638Z,18.12
2018-04-23T02:21:01.807Z,18.11
2018-04-23T02:23:12.997Z,18.12
2018-04-23T02:25:24.127Z,18.09
2018-04-23T02:27:35.210Z,17.95
2018-04-23T02:29:46.314Z,17.87
2018-04-23T02:31:57.397Z,17.88
2018-04-23T02:34:08.465Z,17.87
2018-04-23T02:36:19.524Z,17.82
2018-04-23T02:38:30.722Z,17.76
2018-04-23T02:40:41.858Z,17.75
2018-04-23T02:42:52.974Z,17.76
2018-04-23T02:45:04.029Z,17.76
2018-04-23T02:47:15.061Z,17.78
2018-04-23T02:49:26.205Z,17.80
2018-04-23T02:51:37.292Z,17.76
2018-04-23T02:53:48.474Z,17.76
2018-04-23T02:55:59.550Z,17.79
2018-04-23T02:58:10.682Z,17.76
2018-04-23T03:00:21.758Z,17.76
2018-04-23T03:02:32.896Z,17.76
2018-04-23T03:04:43.954Z,17.77
2018-04-23T03:06:55.027Z,17.80
2018-04-23T03:09:06.110Z,17.78
2018-04-23T03:11:17.174Z,17.70
2018-04-23T03:13:28.365Z,17.71
2018-04-23T03:15:39.478Z,17.70
2018-04-23T03:17:50.582Z,17.69
2018-04-23T03:20:01.746Z,17.71
2018-04-23T03:22:19.741Z,17.63
2018-04-23T03:24:30.913Z,17.59
2018-04-23T03:26:42.051Z,17.55
2018-04-23T03:28:53.212Z,17.53
2018-04-23T03:31:04.361Z,17.53
2018-04-23T03:33:15.417Z,17.51
2018-04-23T03:35:26.754Z,17.46
2018-04-23T03:37:37.832Z,17.46
2018-04-23T03:39:49.672Z,17.45
2018-04-23T03:42:00.831Z,17.43
2018-04-23T03:44:11.939Z,17.40
2018-04-23T03:46:23.046Z,17.36
2018-04-23T03:48:34.165Z,17.33
2018-04-23T03:50:45.245Z,17.31
2018-04-23T03:52:56.390Z,17.30
2018-04-23T03:55:07.478Z,17.29
2018-04-23T03:57:18.601Z,17.26
2018-04-23T03:59:29.702Z,17.25
2018-04-23T04:01:40.913Z,17.23
2018-04-23T04:03:51.970Z,17.22
2018-04-23T04:06:03.093Z,17.24
2018-04-23T04:08:14.194Z,17.24
2018-04-23T04:10:25.308Z,17.30
2018-04-23T04:12:48.498Z,17.23
2018-04-23T04:15:11.946Z,17.23
2018-04-23T04:17:35.850Z,17.25
2018-04-23T04:19:46.945Z,17.31
2018-04-23T04:21:58.029Z,17.23
2018-04-23T04:24:09.129Z,17.15
2018-04-23T04:26:20.337Z,17.02
2018-04-23T04:28:32.257Z,16.87
2018-04-23T04:30:43.317Z,16.77
2018-04-23T04:32:54.473Z,16.75
2018-04-23T04:35:05.564Z,16.71
2018-04-23T04:37:16.686Z,16.68
2018-04-23T04:39:27.757Z,16.63
2018-04-23T04:41:39.065Z,16.60
2018-04-23T04:43:50.165Z,16.58
2018-04-23T04:46:01.259Z,16.59
2018-04-23T04:48:12.369Z,16.59
2018-04-23T04:50:23.489Z,16.59
2018-04-23T04:52:34.562Z,16.56
2018-04-23T04:54:45.661Z,16.58
2018-04-23T04:56:56.829Z,16.59
2018-04-23T04:59:07.930Z,16.61
2018-04-23T05:01:18.993Z,16.66
2018-04-23T05:03:30.137Z,16.72
2018-04-23T05:05:41.220Z,16.79
2018-04-23T05:07:52.282Z,16.86
2018-04-23T05:10:03.427Z,16.90
2018-04-23T05:12:14.574Z,16.89
2018-04-23T05:14:25.756Z,16.91
2018-04-23T05:16:36.897Z,16.91
2018-04-23T05:18:47.993Z,16.93
2018-04-23T05:20:59.075Z,16.96
2018-04-23T05:23:10.132Z,17.06
2018-04-23T05:25:21.201Z,17.17
2018-04-23T05:27:32.306Z,17.28
2018-04-23T05:29:43.435Z,17.34
2018-04-23T05:31:54.623Z,17.42
2018-04-23T05:34:05.726Z,17.54
2018-04-23T05:36:16.799Z,17.63
2018-04-23T05:38:27.850Z,17.82
2018-04-23T05:40:38.922Z,18.04
2018-04-23T05:42:49.981Z,18.31
2018-04-23T05:45:01.144Z,18.62
2018-04-23T05:47:13.127Z,18.92
2018-04-23T05:49:24.171Z,19.23
2018-04-23T05:51:35.270Z,19.59
2018-04-23T05:53:46.301Z,19.88
2018-04-23T05:55:57.782Z,20.17
2018-04-23T05:58:08.830Z,20.41
2018-04-23T06:00:20.175Z,20.70
2018-04-23T06:02:31.358Z,20.89
2018-04-23T06:04:42.446Z,21.05
2018-04-23T06:06:53.549Z,21.11
2018-04-23T06:09:04.622Z,21.10
2018-04-23T06:11:15.702Z,21.19
2018-04-23T06:13:26.831Z,21.27
2018-04-23T06:15:37.890Z,21.31
2018-04-23T06:17:48.977Z,21.48
2018-04-23T06:20:00.053Z,21.42
2018-04-23T06:22:11.221Z,21.30
2018-04-23T06:24:22.268Z,21.17
2018-04-23T06:26:33.321Z,21.07
2018-04-23T06:28:44.399Z,21.03
2018-04-23T06:30:55.491Z,20.90
2018-04-23T06:33:06.602Z,20.76
2018-04-23T06:35:17.742Z,20.68
2018-04-23T06:37:28.931Z,20.62
2018-04-23T06:39:40.008Z,20.67
2018-04-23T06:41:51.063Z,20.77
2018-04-23T06:44:02.143Z,20.88
2018-04-23T06:46:13.229Z,20.92
2018-04-23T06:48:24.291Z,21.03
2018-04-23T06:50:35.357Z,21.12
2018-04-23T06:52:46.423Z,21.21
2018-04-23T06:54:57.509Z,21.19
2018-04-23T06:57:08.570Z,21.26
2018-04-23T06:59:19.629Z,21.32
2018-04-23T07:01:30.693Z,21.34
2018-04-23T07:03:41.778Z,21.29
2018-04-23T07:05:52.951Z,21.24
2018-04-23T07:08:04.026Z,21.25
2018-04-23T07:10:15.137Z,21.24
2018-04-23T07:12:26.198Z,21.29
2018-04-23T07:14:37.309Z,21.39
2018-04-23T07:16:48.363Z,21.57
2018-04-23T07:18:59.455Z,21.79
2018-04-23T07:21:10.492Z,22.00
2018-04-23T07:23:21.585Z,22.13
2018-04-23T07:25:32.673Z,22.23
2018-04-23T07:27:43.878Z,22.33
2018-04-23T07:29:54.918Z,22.37
2018-04-23T07:32:05.982Z,22.40
2018-04-23T07:34:17.027Z,22.48
2018-04-23T07:36:28.090Z,22.57
2018-04-23T07:38:39.182Z,22.69
2018-04-23T07:40:50.222Z,22.81
2018-04-23T07:43:01.426Z,22.82
2018-04-23T07:45:12.480Z,22.86
2018-04-23T07:47:23.547Z,22.87
2018-04-23T07:49:34.594Z,22.81
2018-04-23T07:51:45.670Z,22.81
2018-04-23T07:53:56.746Z,22.79
2018-04-23T07:56:07.886Z,22.81
2018-04-23T07:58:19.007Z,22.86
2018-04-23T08:00:30.098Z,22.84
2018-04-23T08:02:41.147Z,22.94
2018-04-23T08:04:52.233Z,23.12
2018-04-23T08:07:03.294Z,23.28
2018-04-23T08:09:14.376Z,23.33
2018-04-23T08:11:25.534Z,23.33
2018-04-23T08:13:36.717Z,23.16
2018-04-23T08:15:47.898Z,23.05
2018-04-23T08:17:59.078Z,22.94
2018-04-23T08:20:10.127Z,22.80
2018-04-23T08:22:21.210Z,22.74
2018-04-23T08:24:32.558Z,22.69
2018-04-23T08:26:43.634Z,22.64
2018-04-23T08:28:54.717Z,22.56
2018-04-23T08:31:05.771Z,22.43
2018-04-23T08:33:16.894Z,22.39
2018-04-23T08:35:28.118Z,22.37
2018-04-23T08:37:39.166Z,22.26
2018-04-23T08:39:50.220Z,22.16
2018-04-23T08:42:01.277Z,22.14
2018-04-23T08:44:12.321Z,22.20
2018-04-23T08:46:23.491Z,22.14
2018-04-23T08:48:34.546Z,22.06
2018-04-23T08:50:45.678Z,21.91
2018-04-23T08:52:56.738Z,21.74
2018-04-23T08:55:07.858Z,21.53
2018-04-23T08:57:18.921Z,21.20
2018-04-23T08:59:29.978Z,20.93
2018-04-23T09:01:41.050Z,20.76
2018-04-23T09:03:52.106Z,20.39
2018-04-23T09:06:03.226Z,20.13
2018-04-23T09:08:14.330Z,19.88
2018-04-23T09:10:25.422Z,19.78
2018-04-23T09:12:36.495Z,19.66
2018-04-23T09:14:47.548Z,19.55
2018-04-23T09:16:58.630Z,19.55
2018-04-23T09:19:09.689Z,19.62
2018-04-23T09:21:20.722Z,20.22
2018-04-23T09:23:31.857Z,20.53
2018-04-23T09:25:42.927Z,20.79
2018-04-23T09:27:54.038Z,21.08
2018-04-23T09:30:05.115Z,21.49
2018-04-23T09:32:16.193Z,21.64
2018-04-23T09:34:27.286Z,21.88
2018-04-23T09:36:38.326Z,22.18
2018-04-23T09:38:49.513Z,22.45
2018-04-23T09:41:00.586Z,22.79
2018-04-23T09:43:11.727Z,23.02
2018-04-23T09:45:22.902Z,23.15
2018-04-23T09:47:34.042Z,23.02
2018-04-23T09:49:45.117Z,22.74
2018-04-23T09:51:56.174Z,22.63
2018-04-23T09:54:07.283Z,22.54
2018-04-23T09:56:18.375Z,22.59
2018-04-23T09:58:30.494Z,22.92
2018-04-23T10:00:41.638Z,23.20
2018-04-23T10:02:52.695Z,23.22
2018-04-23T10:05:03.986Z,23.34
2018-04-23T10:07:15.038Z,23.60
2018-04-23T10:09:26.192Z,23.43
2018-04-23T10:11:37.352Z,23.40
2018-04-23T10:13:48.482Z,23.54
2018-04-23T10:15:59.566Z,23.77
2018-04-23T10:18:10.622Z,23.77
2018-04-23T10:20:21.678Z,23.55
2018-04-23T10:22:32.788Z,23.13
2018-04-23T10:24:43.869Z,22.86
2018-04-23T10:26:54.931Z,22.78
2018-04-23T10:29:06.152Z,22.86
2018-04-23T10:31:17.378Z,23.10
2018-04-23T10:33:28.497Z,23.21
2018-04-23T10:35:39.559Z,23.06
2018-04-23T10:37:50.642Z,22.88
2018-04-23T10:40:01.699Z,22.66
2018-04-23T10:42:12.788Z,22.50
2018-04-23T10:44:23.920Z,22.29
2018-04-23T10:46:34.995Z,22.09
2018-04-23T10:48:46.078Z,21.85
2018-04-23T10:50:57.138Z,21.64
2018-04-23T10:53:08.217Z,21.49
2018-04-23T10:55:19.293Z,21.36
2018-04-23T10:57:30.375Z,21.14
2018-04-23T10:59:41.494Z,21.08
2018-04-23T11:01:52.612Z,20.99
2018-04-23T11:04:03.798Z,21.02
2018-04-23T11:06:14.846Z,21.00
2018-04-23T11:08:26.039Z,20.99
2018-04-23T11:10:37.161Z,21.03
2018-04-23T11:12:48.383Z,21.07
2018-04-23T11:14:59.484Z,20.97
2018-04-23T11:17:10.541Z,21.02
2018-04-23T11:19:21.638Z,20.96
2018-04-23T11:21:32.674Z,20.96
2018-04-23T11:23:43.805Z,20.92
2018-04-23T11:25:54.926Z,20.99
2018-04-23T11:28:06.042Z,21.08
2018-04-23T11:30:17.150Z,21.14
2018-04-23T11:32:28.260Z,21.23
2018-04-23T11:34:39.290Z,21.35
2018-04-23T11:36:50.406Z,21.42
2018-04-23T11:39:01.457Z,21.56
2018-04-23T11:41:12.586Z,21.70
2018-04-23T11:43:23.673Z,21.73
2018-04-23T11:45:34.746Z,21.82
2018-04-23T11:47:45.808Z,21.80
2018-04-23T11:49:56.887Z,21.85
2018-04-23T11:52:08.209Z,21.85
2018-04-23T11:54:19.250Z,21.67
2018-04-23T11:56:30.340Z,21.58
2018-04-23T11:58:41.429Z,21.69
2018-04-23T12:00:52.587Z,21.60
2018-04-23T12:03:03.659Z,21.48
2018-04-23T12:05:14.791Z,21.48
2018-04-23T12:07:25.982Z,21.50
2018-04-23T12:09:37.057Z,21.54
2018-04-23T12:11:48.138Z,21.54
2018-04-23T12:13:59.201Z,21.52
2018-04-23T12:16:10.491Z,21.49
2018-04-23T12:18:21.521Z,21.48
2018-04-23T12:20:32.626Z,21.55
2018-04-23T12:22:43.709Z,21.57
2018-04-23T12:24:54.766Z,21.46
2018-04-23T12:27:05.813Z,21.47
2018-04-23T12:29:16.945Z,21.32
2018-04-23T12:31:28.006Z,21.29
2018-04-23T12:33:39.079Z,21.22
2018-04-23T12:35:50.223Z,21.08
2018-04-23T12:38:01.282Z,20.87
2018-04-23T12:40:12.615Z,20.79
2018-04-23T12:42:23.944Z,20.61
2018-04-23T12:44:35.037Z,20.52
2018-04-23T12:46:46.091Z,20.44
2018-04-23T12:48:57.167Z,20.27
2018-04-23T12:51:08.237Z,20.19
2018-04-23T12:53:19.285Z,20.15
2018-04-23T12:55:30.450Z,20.16
2018-04-23T12:57:41.523Z,20.14
2018-04-23T12:59:52.690Z,20.16
2018-04-23T13:02:03.741Z,20.23
2018-04-23T13:04:14.811Z,20.20
2018-04-23T13:06:25.922Z,20.21
2018-04-23T13:08:36.980Z,20.20
2018-04-23T13:10:48.165Z,20.15
2018-04-23T13:12:59.242Z,20.13
2018-04-23T13:15:10.380Z,20.09
2018-04-23T13:17:21.471Z,20.07
2018-04-23T13:19:32.555Z,20.03
2018-04-23T13:21:43.632Z,20.07
2018-04-23T13:23:54.736Z,20.16
2018-04-23T13:26:05.768Z,20.20
2018-04-23T13:28:16.913Z,20.30
2018-04-23T13:30:28.076Z,20.34
2018-04-23T13:32:39.227Z,20.40
2018-04-23T13:34:50.339Z,20.45
2018-04-23T13:37:01.415Z,20.49
2018-04-23T13:39:12.521Z,20.58
2018-04-23T13:41:23.626Z,20.70
2018-04-23T13:43:34.669Z,20.85
2018-04-23T13:45:45.759Z,20.95
2018-04-23T13:47:56.915Z,20.95
2018-04-23T13:50:07.957Z,21.04
2018-04-23T13:52:19.098Z,21.12
2018-04-23T13:54:30.137Z,21.13
2018-04-23T13:56:41.177Z,21.25
2018-04-23T13:58:52.253Z,21.35
2018-04-23T14:01:03.301Z,21.28
2018-04-23T14:03:14.434Z,21.21
2018-04-23T14:05:25.530Z,21.23
2018-04-23T14:07:36.658Z,21.31
2018-04-23T14:09:47.710Z,21.37
2018-04-23T14:11:58.802Z,21.27
2018-04-23T14:14:10.381Z,21.29
2018-04-23T14:16:21.459Z,21.27
2018-04-23T14:18:32.755Z,21.33
2018-04-23T14:20:43.816Z,21.38
2018-04-23T14:22:54.878Z,21.46
2018-04-23T14:25:06.012Z,21.46
2018-04-23T14:27:17.190Z,21.32
2018-04-23T14:29:28.313Z,21.34
2018-04-23T14:31:39.403Z,21.31
2018-04-23T14:33:50.486Z,21.39
2018-04-23T14:36:01.543Z,21.46
2018-04-23T14:38:12.618Z,21.41
2018-04-23T14:40:23.751Z,21.39
2018-04-23T14:42:34.813Z,21.32
2018-04-23T14:44:45.877Z,21.27
2018-04-23T14:46:56.982Z,21.25
2018-04-23T14:49:08.083Z,21.18
2018-04-23T14:51:19.445Z,21.14
2018-04-23T14:53:30.493Z,21.09
2018-04-23T14:55:41.557Z,20.89
2018-04-23T14:57:52.613Z,20.85
2018-04-23T15:00:03.688Z,20.75
2018-04-23T15:02:14.814Z,20.83
2018-04-23T15:04:25.861Z,20.92
2018-04-23T15:06:37.034Z,20.93
2018-04-23T15:08:48.070Z,20.94
2018-04-23T15:10:59.209Z,20.89
2018-04-23T15:13:10.334Z,20.91
2018-04-23T15:15:21.371Z,20.87
2018-04-23T15:17:32.447Z,20.85
2018-04-23T15:19:43.493Z,20.90
2018-04-23T15:21:54.643Z,20.91
2018-04-23T15:24:05.767Z,20.90
2018-04-23T15:26:16.819Z,20.97
2018-04-23T15:28:27.952Z,21.01
2018-04-23T15:30:39.022Z,21.04
2018-04-23T15:32:50.791Z,21.15
2018-04-23T15:35:01.831Z,21.16
2018-04-23T15:37:12.902Z,21.13
2018-04-23T15:39:23.981Z,20.97
2018-04-23T15:41:35.130Z,20.91
2018-04-23T15:43:46.226Z,20.83
2018-04-23T15:45:57.339Z,20.83
2018-04-23T15:48:08.442Z,20.76
2018-04-23T15:50:19.647Z,20.77
2018-04-23T15:52:30.706Z,20.78
2018-04-23T15:54:41.797Z,20.72
2018-04-23T15:56:52.861Z,20.65
2018-04-23T15:59:03.947Z,20.65
2018-04-23T16:01:15.211Z,20.66
2018-04-23T16:03:26.922Z,20.53
2018-04-23T16:05:38.058Z,20.53
2018-04-23T16:07:49.170Z,20.49
2018-04-23T16:10:00.318Z,20.46
2018-04-23T16:12:11.390Z,20.44
2018-04-23T16:14:22.497Z,20.39
2018-04-23T16:16:33.719Z,20.35
2018-04-23T16:18:44.802Z,20.36
2018-04-23T16:20:55.875Z,20.35
2018-04-23T16:23:06.962Z,20.27
2018-04-23T16:25:18.038Z,20.25
2018-04-23T16:27:29.138Z,20.23
2018-04-23T16:29:40.213Z,20.18
2018-04-23T16:31:51.381Z,20.22
2018-04-23T16:34:02.486Z,20.18
2018-04-23T16:36:13.570Z,20.15
2018-04-23T16:38:24.638Z,20.08
2018-04-23T16:40:35.761Z,20.08
2018-04-23T16:42:46.809Z,20.08
2018-04-23T16:44:58.051Z,20.11
2018-04-23T16:47:09.217Z,20.06
2018-04-23T16:49:20.291Z,20.02
2018-04-23T16:51:31.465Z,20.03
2018-04-23T16:53:42.552Z,19.96
2018-04-23T16:55:53.649Z,19.92
2018-04-23T16:58:04.743Z,19.90
2018-04-23T17:00:15.797Z,19.90
2018-04-23T17:02:26.905Z,19.92
2018-04-23T17:04:38.097Z,19.92
2018-04-23T17:06:49.205Z,19.90
2018-04-23T17:09:00.339Z,19.87
2018-04-23T17:11:11.449Z,19.87
2018-04-23T17:13:22.517Z,19.88
2018-04-23T17:15:33.617Z,19.87
2018-04-23T17:17:44.706Z,19.85
2018-04-23T17:19:55.818Z,19.86
2018-04-23T17:22:06.961Z,19.80
2018-04-23T17:24:18.085Z,19.78
2018-04-23T17:26:29.146Z,19.73
2018-04-23T17:28:40.266Z,19.73
2018-04-23T17:30:51.350Z,19.71
2018-04-23T17:33:02.421Z,19.71
2018-04-23T17:35:13.554Z,19.67
2018-04-23T17:37:24.605Z,19.68
2018-04-23T17:39:35.795Z,19.67
2018-04-23T17:41:46.901Z,19.64
2018-04-23T17:43:58.053Z,19.65
2018-04-23T17:46:09.137Z,19.59
2018-04-23T17:48:20.211Z,19.55
2018-04-23T17:50:31.298Z,19.57
2018-04-23T17:52:42.400Z,19.53
2018-04-23T17:54:53.474Z,19.52
2018-04-23T17:57:04.603Z,19.52
2018-04-23T17:59:15.710Z,19.49
2018-04-23T18:01:26.790Z,19.47
2018-04-23T18:03:37.951Z,19.45
2018-04-23T18:05:49.065Z,19.40
2018-04-23T18:08:00.147Z,19.35
2018-04-23T18:10:11.335Z,19.35
2018-04-23T18:12:22.447Z,19.30
2018-04-23T18:14:33.501Z,19.26
2018-04-23T18:16:44.549Z,19.27
2018-04-23T18:18:55.677Z,19.25
2018-04-23T18:21:06.770Z,19.26
2018-04-23T18:23:17.950Z,19.27
2018-04-23T18:25:29.015Z,19.27
2018-04-23T18:27:40.143Z,19.25
2018-04-23T18:29:51.217Z,19.27
2018-04-23T18:32:02.274Z,19.25
2018-04-23T18:34:13.410Z,19.24
2018-04-23T18:36:24.536Z,19.21
2018-04-23T18:38:35.705Z,19.20
2018-04-23T18:40:46.787Z,19.14
2018-04-23T18:42:58.002Z,19.11
2018-04-23T18:45:09.161Z,19.13
2018-04-23T18:47:20.190Z,19.10
2018-04-23T18:49:31.339Z,19.10
2018-04-23T18:51:42.411Z,19.08
2018-04-23T18:53:53.652Z,19.04
2018-04-23T18:56:04.718Z,18.95
2018-04-23T18:58:15.949Z,18.96
2018-04-23T19:00:27.050Z,18.93
2018-04-23T19:02:38.249Z,18.86
2018-04-23T19:04:49.311Z,18.79
2018-04-23T19:07:00.466Z,18.75
2018-04-23T19:09:11.529Z,18.68
2018-04-23T19:11:22.653Z,18.57
2018-04-23T19:13:33.786Z,18.58
2018-04-23T19:15:44.911Z,18.57
2018-04-23T19:17:56.051Z,18.56
2018-04-23T19:20:07.197Z,18.54
2018-04-23T19:22:18.358Z,18.52
2018-04-23T19:24:29.474Z,18.51
2018-04-23T19:26:40.583Z,18.51
2018-04-23T19:28:51.686Z,18.51
2018-04-23T19:31:02.768Z,18.48
2018-04-23T19:33:13.961Z,18.50
2018-04-23T19:35:25.043Z,18.51
2018-04-23T19:37:36.214Z,18.48
2018-04-23T19:39:47.267Z,18.46
2018-04-23T19:41:58.445Z,18.45
2018-04-23T19:44:09.563Z,18.43
2018-04-23T19:46:20.716Z,18.40
2018-04-23T19:48:31.739Z,18.36
2018-04-23T19:50:42.795Z,18.33
2018-04-23T19:52:53.912Z,18.33
2018-04-23T19:55:05.004Z,18.35
2018-04-23T19:57:16.307Z,18.28
2018-04-23T19:59:27.406Z,18.24
2018-04-23T20:01:38.542Z,18.25
2018-04-23T20:03:49.629Z,18.27
2018-04-23T20:06:00.761Z,18.26
2018-04-23T20:08:11.855Z,18.25
2018-04-23T20:10:22.892Z,18.20
2018-04-23T20:12:34.088Z,18.14
2018-04-23T20:14:45.190Z,18.12
2018-04-23T20:16:56.382Z,18.13
2018-04-23T20:19:07.495Z,18.12
2018-04-23T20:21:18.586Z,18.14
2018-04-23T20:23:29.666Z,18.19
2018-04-23T20:25:40.736Z,18.17
2018-04-23T20:27:51.941Z,18.15
2018-04-23T20:30:03.054Z,18.11
2018-04-23T20:32:14.219Z,18.11
2018-04-23T20:34:25.306Z,18.08
2018-04-23T20:36:36.416Z,18.06
2018-04-23T20:38:47.525Z,18.01
2018-04-23T20:40:58.654Z,17.87
2018-04-23T20:43:09.965Z,17.82
2018-04-23T20:45:21.070Z,17.81
2018-04-23T20:47:32.136Z,17.82
2018-04-23T20:49:43.222Z,17.76
2018-04-23T20:51:54.382Z,17.78
2018-04-23T20:54:05.441Z,17.80
2018-04-23T20:56:16.554Z,17.77
2018-04-23T20:58:27.649Z,17.73
2018-04-23T21:00:38.720Z,17.73
2018-04-23T21:02:49.793Z,17.73
2018-04-23T21:05:00.921Z,17.75
2018-04-23T21:07:12.010Z,17.72
2018-04-23T21:09:23.099Z,17.70
2018-04-23T21:11:34.297Z,17.68
2018-04-23T21:13:45.358Z,17.62
2018-04-23T21:15:56.606Z,17.59
2018-04-23T21:18:07.736Z,17.56
2018-04-23T21:20:18.833Z,17.54
2018-04-23T21:22:29.974Z,17.48
2018-04-23T21:24:41.034Z,17.47
2018-04-23T21:26:52.116Z,17.49
2018-04-23T21:29:03.200Z,17.52
2018-04-23T21:31:14.370Z,17.52
2018-04-23T21:33:25.445Z,17.52
2018-04-23T21:35:36.565Z,17.52
2018-04-23T21:37:47.627Z,17.51
2018-04-23T21:39:58.701Z,17.48
2018-04-23T21:42:09.817Z,17.44
2018-04-23T21:44:20.958Z,17.44
2018-04-23T21:46:32.062Z,17.41
2018-04-23T21:48:43.174Z,17.37
2018-04-23T21:50:54.334Z,17.40
2018-04-23T21:53:05.398Z,17.41
2018-04-23T21:55:16.434Z,17.38
2018-04-23T21:57:27.498Z,17.37
2018-04-23T21:59:38.566Z,17.37
2018-04-23T22:01:49.665Z,17.34
2018-04-23T22:04:00.742Z,17.30
2018-04-23T22:06:11.838Z,17.28
2018-04-23T22:08:22.918Z,17.25
2018-04-23T22:10:34.006Z,17.22
2018-04-23T22:12:45.098Z,17.18
2018-04-23T22:14:56.198Z,17.13
2018-04-23T22:17:07.255Z,17.07
2018-04-23T22:19:18.421Z,17.04
2018-04-23T22:21:29.506Z,17.02
2018-04-23T22:23:40.686Z,16.98
2018-04-23T22:25:51.741Z,16.96
2018-04-23T22:28:02.890Z,16.97
2018-04-23T22:30:13.945Z,16.97
2018-04-23T22:32:25.053Z,16.97
2018-04-23T22:34:36.126Z,16.97
2018-04-23T22:36:47.177Z,16.98
2018-04-23T22:38:58.305Z,16.97
2018-04-23T22:41:09.382Z,16.95
2018-04-23T22:43:20.609Z,16.90
2018-04-23T22:45:31.671Z,16.86
2018-04-23T22:47:42.726Z,16.84
2018-04-23T22:49:53.794Z,16.81
2018-04-23T22:52:04.845Z,16.79
2018-04-23T22:54:15.950Z,16.74
2018-04-23T22:56:26.998Z,16.70
2018-04-23T22:58:38.042Z,16.66
2018-04-23T23:00:49.179Z,16.64
2018-04-23T23:03:00.240Z,16.60
2018-04-23T23:05:11.321Z,16.56
2018-04-23T23:07:22.378Z,16.51
2018-04-23T23:09:33.475Z,16.47
2018-04-23T23:11:44.606Z,16.49
2018-04-23T23:13:55.651Z,16.51
2018-04-23T23:16:06.795Z,16.50
2018-04-23T23:18:17.874Z,16.55
2018-04-23T23:20:29.002Z,16.50
2018-04-23T23:22:40.069Z,16.48
2018-04-23T23:24:51.129Z,16.44
2018-04-23T23:27:02.205Z,16.44
2018-04-23T23:29:13.346Z,16.38
2018-04-23T23:31:24.491Z,16.30
2018-04-23T23:33:35.564Z,16.27
2018-04-23T23:35:46.620Z,16.24
2018-04-23T23:37:57.697Z,16.19
2018-04-23T23:40:08.776Z,16.14
2018-04-23T23:42:19.857Z,16.11
2018-04-23T23:44:30.910Z,16.11
2018-04-23T23:46:42.023Z,16.10
2018-04-23T23:48:53.091Z,16.07
2018-04-23T23:51:04.157Z,16.04
2018-04-23T23:53:15.294Z,15.99
2018-04-23T23:55:26.390Z,15.91
2018-04-23T23:57:37.457Z,15.90
2018-04-23T23:59:48.491Z,15.88
